Basalt, Colorado
Current Conditions -  °F | °C
As of 10:53 AM on Saturday 25 Oct 2014 (Local Time) from KASE Reporting Station
Clear Clear  
Wind Chill: 55°   Ceiling: Unl
Heat Index: 55°   Visibility: 10mi
Dew Point: 19°   Wind: 7mph
Humidity: 24%   Direction: 340°NNW
Pressure: 30.38"   Gusts: NA
Location:  39.37°N, 107.03°W
Report Text: KASE 251653Z 34006KT 10SM CLR 13/M07 A3038 RMK AO2 SLP212 T01281072
Loading
Personal Weather Stations






























Interactive Weather Map
Tropical Storm Tracking
New forecast layout! Learn more

10-Day Weather Forecast

Advertisements
Track Severe Weather on mobile